WetterOnline ( https://www.wetteronline.de )

Wetter aktuell Kraichgau

Aktuelles Wetter: Waibstadt (237m)

6-stündlich | Neueste Meldungen
Ortszeit Temperatur Wetter
So, 25.09. 20:00 11.9° C bewölkt
So, 25.09. 14:00 13.2° C leichter Regen
So, 25.09. 8:00 11.9° C Nebel
So, 25.09. 2:00 11.3° C bewölkt
Sa, 24.09. 20:00 14.7° C bedeckt
Sa, 24.09. 14:00 15.5° C wolkig
Sa, 24.09. 8:00 8.5° C bedeckt
Sa, 24.09. 2:00 9.9° C bedeckt
Ortszeit Temperatur Wetter
So, 25.09. 22:30 11.2° C bedeckt
So, 25.09. 22:20 11.2° C bedeckt
So, 25.09. 22:10 11.2° C bedeckt
So, 25.09. 22:00 11.3° C bewölkt
So, 25.09. 21:50 11.3° C bewölkt
So, 25.09. 21:40 11.4° C bewölkt
So, 25.09. 21:30 11.3° C bedeckt
So, 25.09. 21:00 11.4° C bewölkt
So, 25.09. 20:30 11.7° C bedeckt
So, 25.09. 20:00 11.9° C bewölkt
So, 25.09. 19:30 12.1° C bewölkt
Ortszeit Relative Feuchte Sichtweite
So, 25.09. 20:00 89% 35 km
So, 25.09. 14:00 95% 10 km
So, 25.09. 8:00 98% 100 m
So, 25.09. 2:00 98% 10 km
Sa, 24.09. 20:00 85% 35 km
Sa, 24.09. 14:00 78% 40 km
Sa, 24.09. 8:00 97% 9 km
Sa, 24.09. 2:00 94% 24 km
Ortszeit Relative Feuchte Sichtweite
So, 25.09. 22:30 90% 40 km
So, 25.09. 22:20 90% -
So, 25.09. 22:10 91% -
So, 25.09. 22:00 90% 30 km
So, 25.09. 21:50 90% -
So, 25.09. 21:40 90% -
So, 25.09. 21:30 94% 27 km
So, 25.09. 21:00 91% 30 km
So, 25.09. 20:30 89% 35 km
So, 25.09. 20:00 89% 35 km
So, 25.09. 19:30 90% 35 km
Ortszeit Niederschlagsmenge Niederschlagsart
So, 25.09. 20:00 5 l/m2 in 12 Std. Regen
So, 25.09. 14:00 5 l/m2 in 6 Std. Regen
So, 25.09. 8:00 8 l/m2 in 12 Std. Regen
So, 25.09. 2:00 7 l/m2 in 6 Std. Regen
Sa, 24.09. 20:00 0.1 l/m2 in 12 Std. Regen
Sa, 24.09. 14:00 0.1 l/m2 in 6 Std. Regen
Sa, 24.09. 8:00 0.0 l/m2 in 12 Std. -
Sa, 24.09. 2:00 0.0 l/m2 in 6 Std. -
Ortszeit Niederschlagsmenge Niederschlagsart
So, 25.09. 22:30 0.0 l/m2 in 1 Std. -
So, 25.09. 22:20 keine Meldung -
So, 25.09. 22:10 keine Meldung -
So, 25.09. 22:00 0.0 l/m2 in 1 Std. -
So, 25.09. 21:50 keine Meldung -
So, 25.09. 21:40 keine Meldung -
So, 25.09. 21:30 0.0 l/m2 in 1 Std. -
So, 25.09. 21:00 0.0 l/m2 in 1 Std. -
So, 25.09. 20:30 0.0 l/m2 in 1 Std. -
So, 25.09. 20:00 0.0 l/m2 in 1 Std. Regen
So, 25.09. 19:30 0.0 l/m2 in 1 Std. -
Ortszeit Stärke Spitze Richtung
km/h Bft. km/h Grad Sektor
So, 25.09. 20:00 6 1 20 350° N
So, 25.09. 14:00 9 2 19 260° W
So, 25.09. 8:00 0 0 7 - -
So, 25.09. 2:00 7 2 40 250° W
Sa, 24.09. 20:00 4 1 14 160° S
Sa, 24.09. 14:00 9 2 17 230° SW
Sa, 24.09. 8:00 4 1 11 130° SO
Sa, 24.09. 2:00 4 1 7 90° O
Ortszeit Stärke Spitze Richtung
km/h Bft. km/h Grad Sektor
So, 25.09. 22:30 7 2 11 290° W
So, 25.09. 22:20 7 2 - 290° W
So, 25.09. 22:10 6 1 - 300° NW
So, 25.09. 22:00 7 2 14 290° W
So, 25.09. 21:50 7 2 - 290° W
So, 25.09. 21:40 7 2 - 290° W
So, 25.09. 21:30 7 2 11 270° W
So, 25.09. 21:00 7 2 11 290° W
So, 25.09. 20:30 6 1 11 340° N
So, 25.09. 20:00 6 1 17 350° N
So, 25.09. 19:30 7 2 18 360° N
Ortszeit Untergrenze Bedeckung Gattung
total tief tief mittel hoch
So, 25.09. 20:00 510 m 7/8 7/8 - - -
So, 25.09. 14:00 300 m 6/8 6/8 - - -
So, 25.09. 8:00 <30 m 8/8 0/8 - - -
So, 25.09. 2:00 1140 m 7/8 7/8 - - -
Sa, 24.09. 20:00 2100 m 8/8 8/8 - - -
Sa, 24.09. 14:00 480 m 7/8 1/8 - - -
Sa, 24.09. 8:00 4200 m 8/8 8/8 - - -
Sa, 24.09. 2:00 3600 m 8/8 8/8 - - -
Ortszeit Bedeckungsgrad in Achtel und Wolkenuntergrenze
So, 25.09. 22:30 7(1800m) 8(2400m)
So, 25.09. 22:20 7(1800m) 8(2400m)
So, 25.09. 22:10 8
So, 25.09. 22:00 1(450m) 7(2400m) 7(3600m)
So, 25.09. 21:50 1(450m) 7(2400m) 7(3600m)
So, 25.09. 21:40 7
So, 25.09. 21:30 8(1800m)
So, 25.09. 21:00 2(1800m) 7(2400m)
So, 25.09. 20:30 8(2100m)
So, 25.09. 20:00 4(510m) 4(720m) 7(2100m)
So, 25.09. 19:30 7(480m)
Ortszeit Luftdruck NN (hPa) Tendenz (hPa in 3 Std.)
So, 25.09. 20:00 1013 + 0,6
So, 25.09. 14:00 1012 - 0,2
So, 25.09. 8:00 1012 - 0,2
So, 25.09. 2:00 1013 - 0,1
Sa, 24.09. 20:00 1012 + 0,2
Sa, 24.09. 14:00 1013 - 0,2
Sa, 24.09. 8:00 1014 - 0,1
Sa, 24.09. 2:00 1015 - 0,4
Ortszeit Luftdruck NN (hPa) Tendenz (hPa in 3 Std.)
So, 25.09. 22:30 1013 + 0,6
So, 25.09. 22:20 1013 keine Meldung
So, 25.09. 22:10 1013 keine Meldung
So, 25.09. 22:00 1013 + 1,0
So, 25.09. 21:50 1013 keine Meldung
So, 25.09. 21:40 1013 keine Meldung
So, 25.09. 21:30 1013 + 1,0
So, 25.09. 21:00 1013 + 1,0
So, 25.09. 20:30 1013 + 0,9
So, 25.09. 20:00 1013 + 0,6
So, 25.09. 19:30 1012 + 0,5
Ortszeit Schneehöhe (cm)
So, 25.09. 20:00 0
So, 25.09. 14:00 0
So, 25.09. 8:00 0
So, 25.09. 2:00 0
Sa, 24.09. 20:00 0
Sa, 24.09. 14:00 0
Sa, 24.09. 8:00 0
Sa, 24.09. 2:00 0
Ortszeit Schneehöhe (cm)
So, 25.09. 22:30 0
So, 25.09. 22:20 0
So, 25.09. 22:10 0
So, 25.09. 22:00 0
So, 25.09. 21:50 0
So, 25.09. 21:40 0
So, 25.09. 21:30 0
So, 25.09. 21:00 0
So, 25.09. 20:30 0
So, 25.09. 20:00 0
So, 25.09. 19:30 0
Link zu dieser Seite / Seite empfehlen

Das Wetter in ...